Time;durP1;ratioP1;P1;durP2;ratioP2;P2;SDS_P1;SDS_P2;PMS_P1;PMS_P2;Temp;Humidity;BMP_temperature;BMP_pressure;BME280_temperature;BME280_humidity;BME280_pressure;Samples;Min_cycle;Max_cycle;Signal;HPM_P1;HPM_P2
2022/02/28 00:01:31;;;;;;;10.18;4.95;;;;;;;3.37;93.26;103062.50;5079170;28;20406;-32
2022/02/28 00:03:59;;;;;;;10.70;5.22;;;;;;;3.34;93.33;103066.53;5081441;28;20064;-27
2022/02/28 00:06:27;;;;;;;9.85;4.90;;;;;;;3.31;93.74;103060.53;5086258;28;20063;-29
2022/02/28 00:08:56;;;;;;;8.10;4.90;;;;;;;3.30;93.48;103054.16;5082155;28;20048;-30
2022/02/28 00:11:23;;;;;;;13.65;5.22;;;;;;;3.27;93.58;103057.31;5085363;28;20058;-27
2022/02/28 00:13:51;;;;;;;8.82;4.85;;;;;;;3.26;93.48;103058.34;5084001;28;20654;-26
2022/02/28 00:16:19;;;;;;;9.57;4.47;;;;;;;3.28;93.53;103066.44;5084119;28;20070;-28
2022/02/28 00:18:48;;;;;;;8.65;4.80;;;;;;;3.27;93.38;103059.22;5084749;28;20143;-30
2022/02/28 00:21:15;;;;;;;7.97;4.30;;;;;;;3.26;93.48;103058.34;5082069;28;20418;-28
2022/02/28 00:23:43;;;;;;;9.20;5.03;;;;;;;3.24;93.47;103065.13;5086580;28;20056;-23
2022/02/28 00:26:11;;;;;;;8.63;5.00;;;;;;;3.23;93.45;103078.06;5072476;28;20055;-24
2022/02/28 00:28:39;;;;;;;8.50;4.95;;;;;;;3.22;93.83;103061.69;5076259;28;20044;-26
2022/02/28 00:31:08;;;;;;;9.10;5.18;;;;;;;3.19;93.78;103073.16;5085077;28;20055;-27
2022/02/28 00:33:37;;;;;;;10.93;5.00;;;;;;;3.18;93.94;103082.47;5077094;28;20086;-24
2022/02/28 00:36:07;;;;;;;8.52;5.15;;;;;;;3.15;94.01;103071.84;5084060;28;20071;-29
2022/02/28 00:38:36;;;;;;;8.80;4.97;;;;;;;3.13;94.20;103074.78;5075341;28;20663;-31
2022/02/28 00:41:04;;;;;;;10.10;5.10;;;;;;;3.10;94.32;103070.50;5085072;28;20051;-23
2022/02/28 00:43:32;;;;;;;8.93;5.10;;;;;;;3.10;94.24;103070.50;5075973;28;20040;-26
2022/02/28 00:45:59;;;;;;;8.30;5.05;;;;;;;3.10;94.51;103086.19;5084553;28;20040;-28
2022/02/28 00:48:29;;;;;;;9.02;4.55;;;;;;;3.07;94.38;103081.94;5076042;28;20036;-25
2022/02/28 00:50:57;;;;;;;11.98;5.20;;;;;;;3.05;94.56;103078.50;5080192;28;20056;-24
2022/02/28 00:53:26;;;;;;;9.60;5.20;;;;;;;3.06;93.89;103080.22;5085501;28;20091;-26
2022/02/28 00:55:54;;;;;;;7.78;4.50;;;;;;;3.02;93.82;103078.88;5082842;28;20139;-26
2022/02/28 00:58:22;;;;;;;9.68;4.72;;;;;;;2.99;94.05;103082.06;5083193;28;20514;-26
2022/02/28 01:00:50;;;;;;;10.10;5.25;;;;;;;2.97;93.86;103077.78;5082946;28;20124;-31
2022/02/28 01:03:20;;;;;;;10.05;4.97;;;;;;;2.95;94.04;103072.47;5082369;28;20051;-26
2022/02/28 01:05:48;;;;;;;8.55;4.90;;;;;;;2.92;93.99;103067.34;5082758;28;20080;-24
2022/02/28 01:08:15;;;;;;;10.43;4.50;;;;;;;2.88;94.34;103079.78;5084297;28;20048;-25
2022/02/28 01:10:49;;;;;;;9.10;4.88;;;;;;;2.82;95.12;103076.94;5082207;28;20061;-29
2022/02/28 01:13:17;;;;;;;9.63;5.30;;;;;;;2.77;95.31;103077.56;5082562;28;20139;-27
2022/02/28 01:15:46;;;;;;;9.70;4.70;;;;;;;2.75;95.29;103075.00;5074398;28;20112;-25
2022/02/28 01:18:14;;;;;;;8.95;4.55;;;;;;;2.75;94.66;103065.88;5079283;28;20174;-26
2022/02/28 01:20:43;;;;;;;7.95;4.97;;;;;;;2.69;95.63;103067.47;5075988;28;20056;-26
2022/02/28 01:23:11;;;;;;;8.95;4.40;;;;;;;2.71;95.43;103067.28;5081788;28;20071;-28
2022/02/28 01:25:39;;;;;;;10.15;5.47;;;;;;;2.66;95.45;103059.59;5075128;28;20111;-25
2022/02/28 01:28:08;;;;;;;9.70;4.82;;;;;;;2.65;95.50;103060.63;5083815;28;20275;-28
2022/02/28 01:30:36;;;;;;;7.78;4.32;;;;;;;2.66;95.73;103069.75;5075511;28;20356;-31
2022/02/28 01:33:04;;;;;;;9.68;4.70;;;;;;;2.64;95.72;103063.59;5081707;28;20052;-27
2022/02/28 01:35:32;;;;;;;9.65;4.95;;;;;;;2.62;95.48;103060.16;5075697;28;20363;-26
2022/02/28 01:38:00;;;;;;;9.00;4.70;;;;;;;2.64;95.38;103069.09;5083731;28;20051;-29
2022/02/28 01:40:28;;;;;;;9.65;4.72;;;;;;;2.65;95.44;103074.41;5074873;28;20056;-27
2022/02/28 01:42:56;;;;;;;10.45;4.85;;;;;;;2.63;95.12;103073.75;5083256;28;20056;-32
2022/02/28 01:45:25;;;;;;;8.60;4.53;;;;;;;2.63;94.78;103073.75;5074534;28;20056;-28
2022/02/28 01:47:56;;;;;;;7.18;4.18;;;;;;;2.63;94.90;103067.38;5080478;28;20056;-24
2022/02/28 01:50:25;;;;;;;9.07;4.90;;;;;;;2.62;94.92;103071.19;5075080;28;20131;-28
2022/02/28 01:52:52;;;;;;;9.77;4.85;;;;;;;2.61;94.36;103069.47;5078084;28;20411;-27
2022/02/28 01:55:23;;;;;;;9.60;4.13;;;;;;;2.61;94.36;103069.47;5076446;28;20123;-27
2022/02/28 01:57:52;;;;;;;7.47;4.50;;;;;;;2.58;94.12;103076.25;5069388;28;20549;-25
2022/02/28 02:00:22;;;;;;;7.68;4.47;;;;;;;2.55;94.37;103075.78;5081619;28;20058;-29
2022/02/28 02:02:52;;;;;;;10.02;4.70;;;;;;;2.51;94.71;103068.94;5081922;28;20072;-25
2022/02/28 02:05:20;;;;;;;7.13;4.10;;;;;;;2.50;94.60;103067.22;5084138;28;20127;-25
2022/02/28 02:07:48;;;;;;;7.45;4.22;;;;;;;2.46;94.92;103065.88;5079375;28;20062;-24
2022/02/28 02:10:18;;;;;;;10.85;4.50;;;;;;;2.43;94.61;103072.63;5080892;28;20193;-24
2022/02/28 02:12:46;;;;;;;7.93;4.38;;;;;;;2.38;94.69;103070.47;5079244;28;20054;-25
2022/02/28 02:15:16;;;;;;;8.23;4.25;;;;;;;2.37;94.85;103067.91;5075871;28;20131;-25
2022/02/28 02:17:45;;;;;;;11.02;5.13;;;;;;;2.35;94.88;103070.84;5081579;28;20048;-27
2022/02/28 02:20:32;;;;;;;7.45;4.32;;;;;;;2.29;95.63;103073.50;5079006;28;20200;-26
2022/02/28 02:23:03;;;;;;;13.15;4.90;;;;;;;2.26;95.73;103074.72;5083118;28;20087;-28
2022/02/28 02:25:31;;;;;;;10.98;4.38;;;;;;;2.23;95.46;103075.09;5081659;28;20040;-27
2022/02/28 02:27:59;;;;;;;8.57;4.80;;;;;;;2.22;95.72;103070.66;5082689;28;20113;-30
2022/02/28 02:30:28;;;;;;;8.88;4.28;;;;;;;2.19;95.95;103067.44;5078235;28;20047;-34
2022/02/28 02:32:58;;;;;;;8.10;4.45;;;;;;;2.14;96.38;103070.75;5083363;28;20055;-27
2022/02/28 02:35:28;;;;;;;8.50;4.53;;;;;;;2.13;96.58;103066.28;5075798;28;20055;-27
2022/02/28 02:37:56;;;;;;;7.20;3.70;;;;;;;2.10;96.43;103060.28;5083816;28;20086;-27
2022/02/28 02:40:24;;;;;;;8.70;4.22;;;;;;;2.10;96.38;103063.91;5077496;28;20226;-28
2022/02/28 02:42:52;;;;;;;7.68;4.38;;;;;;;2.05;97.14;103067.22;5084388;28;20058;-28
2022/02/28 02:45:20;;;;;;;7.30;3.85;;;;;;;2.03;96.82;103063.78;5075763;28;20143;-29
2022/02/28 02:47:48;;;;;;;8.73;4.50;;;;;;;2.02;96.35;103058.47;5083551;28;20052;-25
2022/02/28 02:50:17;;;;;;;7.90;4.80;;;;;;;1.99;96.47;103064.38;5074974;28;20506;-25
2022/02/28 02:52:46;;;;;;;9.82;4.07;;;;;;;1.96;96.49;103053.75;5084873;28;20417;-27
2022/02/28 02:55:18;;;;;;;11.77;4.78;;;;;;;1.91;97.29;103047.94;5075963;28;20535;-27
2022/02/28 02:57:46;;;;;;;7.07;4.13;;;;;;;1.89;97.86;103048.13;5072602;28;20135;-27
2022/02/28 03:00:15;;;;;;;8.82;4.18;;;;;;;1.87;96.99;103044.69;5078743;28;20071;-30
2022/02/28 03:03:04;;;;;;;10.38;4.60;;;;;;;1.82;97.81;103040.78;5082125;28;20056;-26
2022/02/28 03:05:32;;;;;;;7.68;4.20;;;;;;;1.80;98.30;103042.91;5080095;28;20411;-25
2022/02/28 03:08:02;;;;;;;8.70;4.15;;;;;;;1.77;98.52;103037.78;5073851;28;20055;-25
2022/02/28 03:10:30;;;;;;;7.57;4.07;;;;;;;1.71;98.73;103034.72;5078720;28;20101;-25
2022/02/28 03:13:00;;;;;;;7.90;4.65;;;;;;;1.69;99.15;103027.69;5075661;28;20044;-28
2022/02/28 03:15:28;;;;;;;10.23;5.05;;;;;;;1.66;99.67;103030.81;5077484;28;20056;-23
2022/02/28 03:17:57;;;;;;;11.00;4.60;;;;;;;1.63;99.67;103026.53;5074573;28;20414;-29
2022/02/28 03:20:25;;;;;;;9.85;4.38;;;;;;;1.61;100.00;103022.25;5080153;28;20078;-24
2022/02/28 03:22:54;;;;;;;8.25;4.38;;;;;;;1.59;100.00;103016.97;5077803;28;20054;-26
2022/02/28 03:25:24;;;;;;;9.95;4.30;;;;;;;1.59;99.79;103025.22;5086753;28;20566;-23
2022/02/28 03:28:02;;;;;;;8.13;4.32;;;;;;;1.58;100.00;103031.78;5078079;28;20102;-28
2022/02/28 03:30:30;;;;;;;7.10;4.28;;;;;;;1.54;100.00;103033.19;5084750;28;20048;-28
2022/02/28 03:32:58;;;;;;;8.48;4.13;;;;;;;1.55;100.00;103028.53;5083724;28;20052;-32
2022/02/28 03:35:31;;;;;;;8.32;4.55;;;;;;;1.52;100.00;103029.75;5076923;28;20524;-25
2022/02/28 03:38:00;;;;;;;6.95;4.38;;;;;;;1.49;100.00;103035.63;5079380;28;20469;-26
2022/02/28 03:40:33;;;;;;;9.75;4.32;;;;;;;1.50;100.00;103029.09;5085114;28;20082;-30
2022/02/28 03:43:05;;;;;;;8.25;4.57;;;;;;;1.48;100.00;103025.66;5082603;28;20100;-27
2022/02/28 03:46:05;;;;;;;9.18;4.72;;;;;;;1.46;100.00;103027.72;5077230;28;20419;-27
2022/02/28 03:49:12;;;;;;;7.18;4.13;;;;;;;1.45;100.00;103031.53;5047740;28;20052;-27
2022/02/28 03:51:51;;;;;;;7.80;4.15;;;;;;;1.45;100.00;103025.16;5041288;28;20049;-27
2022/02/28 03:54:38;;;;;;;8.80;4.30;;;;;;;1.43;100.00;103028.09;5070845;28;20063;-27
2022/02/28 03:57:07;;;;;;;7.43;4.20;;;;;;;1.41;100.00;103021.94;5081668;28;20141;-30
2022/02/28 03:59:35;;;;;;;9.15;4.63;;;;;;;1.39;100.00;103024.03;5077566;28;20067;-26
2022/02/28 04:02:03;;;;;;;7.10;4.32;;;;;;;1.37;100.00;103026.97;5080433;28;20054;-26
2022/02/28 04:04:35;;;;;;;9.32;4.78;;;;;;;1.36;100.00;103016.16;5076151;28;20068;-27
2022/02/28 04:07:03;;;;;;;7.85;4.00;;;;;;;1.37;100.00;103020.63;5081753;28;20075;-30
2022/02/28 04:09:34;;;;;;;9.18;4.20;;;;;;;1.35;100.00;103025.44;5078766;28;20044;-28
2022/02/28 04:12:05;;;;;;;10.98;4.72;;;;;;;1.35;100.00;103028.19;5080250;28;20131;-26
2022/02/28 04:14:34;;;;;;;8.82;4.50;;;;;;;1.34;100.00;103018.22;5077954;28;20268;-25
2022/02/28 04:17:03;;;;;;;10.93;4.80;;;;;;;1.31;100.00;103027.69;5082300;28;20517;-30
2022/02/28 04:19:37;;;;;;;7.57;4.55;;;;;;;1.30;100.00;103022.38;5073453;28;20079;-27
2022/02/28 04:22:06;;;;;;;7.35;4.53;;;;;;;1.29;100.00;103027.03;5078494;28;20055;-29
2022/02/28 04:24:42;;;;;;;9.20;4.88;;;;;;;1.26;100.00;103018.28;5078617;28;20059;-28
2022/02/28 04:27:10;;;;;;;7.25;4.55;;;;;;;1.23;100.00;103019.50;5082782;28;20041;-25
2022/02/28 04:29:41;;;;;;;9.00;4.32;;;;;;;1.19;100.00;103018.19;5082328;28;20036;-27
2022/02/28 04:32:14;;;;;;;7.97;4.15;;;;;;;1.18;100.00;103018.38;5082452;28;20489;-26
2022/02/28 04:34:52;;;;;;;8.77;4.38;;;;;;;1.18;100.00;103023.88;5080190;28;20056;-29
2022/02/28 04:37:20;;;;;;;8.07;4.43;;;;;;;1.17;100.00;103012.00;5081598;28;20051;-29
2022/02/28 04:39:48;;;;;;;8.32;4.78;;;;;;;1.17;100.00;103008.41;5073032;28;20412;-27
2022/02/28 04:42:17;;;;;;;7.82;4.15;;;;;;;1.16;100.00;103010.31;5073428;28;20090;-27
2022/02/28 04:44:46;;;;;;;10.45;4.55;;;;;;;1.15;100.00;103011.34;5081310;28;20052;-23
2022/02/28 04:47:19;;;;;;;9.98;4.80;;;;;;;1.10;100.00;103004.69;5074113;28;20044;-25
2022/02/28 04:50:10;;;;;;;8.45;4.20;;;;;;;1.12;100.00;103002.59;5080752;28;20104;-27
2022/02/28 04:52:38;;;;;;;9.63;4.40;;;;;;;1.11;100.00;103004.50;5086020;28;20036;-23
2022/02/28 04:55:07;;;;;;;7.25;4.45;;;;;;;1.13;100.00;102999.66;5077904;28;20066;-28
2022/02/28 04:57:37;;;;;;;7.43;4.43;;;;;;;1.10;100.00;102999.19;5084682;28;20471;-25
2022/02/28 05:00:10;;;;;;;10.07;4.68;;;;;;;1.10;100.00;102997.28;5077662;28;20433;-35
2022/02/28 05:02:40;;;;;;;10.15;4.95;;;;;;;1.10;100.00;103001.94;5084585;28;20048;-26
2022/02/28 05:05:16;;;;;;;9.27;4.43;;;;;;;1.07;100.00;103003.16;5077431;28;20050;-28
2022/02/28 05:07:45;;;;;;;8.18;4.70;;;;;;;1.06;100.00;103004.19;5086769;28;20119;-26
2022/02/28 05:10:13;;;;;;;7.53;4.45;;;;;;;1.06;100.00;103003.31;5077946;28;20048;-25
2022/02/28 05:12:42;;;;;;;8.18;4.40;;;;;;;1.04;100.00;102993.38;5086511;28;20052;-24
2022/02/28 05:15:12;;;;;;;9.48;4.30;;;;;;;1.05;100.00;103007.97;5077144;28;20131;-28
2022/02/28 05:17:40;;;;;;;9.05;4.10;;;;;;;1.03;100.00;103002.66;5083871;28;20493;-29
2022/02/28 05:20:09;;;;;;;8.63;4.60;;;;;;;1.02;100.00;103000.94;5077480;28;20072;-31
2022/02/28 05:22:38;;;;;;;9.80;4.45;;;;;;;1.06;100.00;103003.31;5091168;28;20097;-23
2022/02/28 05:25:07;;;;;;;10.05;4.93;;;;;;;1.04;100.00;103011.75;5078269;28;20418;-27
2022/02/28 05:27:37;;;;;;;10.68;4.28;;;;;;;1.06;100.00;103011.56;5083525;28;20561;-26
2022/02/28 05:30:07;;;;;;;8.60;4.50;;;;;;;1.06;100.00;103009.69;5080381;28;20154;-29
2022/02/28 05:32:38;;;;;;;8.55;4.05;;;;;;;1.07;100.00;103007.78;5081973;28;20052;-29
2022/02/28 05:35:37;;;;;;;10.35;5.22;;;;;;;1.07;100.00;103010.53;5077746;28;20136;-25
2022/02/28 05:38:09;;;;;;;8.57;4.95;;;;;;;1.09;100.00;103008.47;5071630;28;20044;-25
2022/02/28 05:40:39;;;;;;;10.95;4.88;;;;;;;1.11;100.00;103014.63;5078696;28;20051;-26
2022/02/28 05:43:10;;;;;;;8.68;4.68;;;;;;;1.10;100.00;103019.28;5074033;28;20040;-27
2022/02/28 05:45:39;;;;;;;8.98;4.57;;;;;;;1.11;100.00;103017.38;5077164;28;20048;-26
2022/02/28 05:48:32;;;;;;;8.55;4.25;;;;;;;1.12;100.00;103028.19;5074343;28;20164;-28
2022/02/28 05:51:02;;;;;;;9.05;4.95;;;;;;;1.13;100.00;103023.56;5079138;28;20052;-25
2022/02/28 05:53:31;;;;;;;9.45;4.82;;;;;;;1.10;100.00;103022.03;5074156;28;20068;-24
2022/02/28 05:55:59;;;;;;;9.25;5.03;;;;;;;1.12;100.00;103016.34;5078979;28;20062;-28
2022/02/28 05:58:26;;;;;;;10.40;5.05;;;;;;;1.12;100.00;103016.34;5076673;28;20119;-28
2022/02/28 06:00:54;;;;;;;9.38;4.55;;;;;;;1.13;100.00;103021.66;5075463;28;20043;-31
2022/02/28 06:03:22;;;;;;;10.25;4.50;;;;;;;1.12;100.00;103017.22;5075468;28;20382;-27
2022/02/28 06:05:52;;;;;;;8.80;4.90;;;;;;;1.10;100.00;103019.28;5077391;28;20056;-27
2022/02/28 06:08:19;;;;;;;8.20;4.30;;;;;;;1.08;100.00;103026.00;5075822;28;20057;-28
2022/02/28 06:10:47;;;;;;;10.82;4.60;;;;;;;1.06;100.00;103028.94;5077907;28;20058;-27
2022/02/28 06:13:16;;;;;;;10.68;4.97;;;;;;;1.07;100.00;103025.13;5074252;28;20140;-26
2022/02/28 06:15:44;;;;;;;9.25;4.65;;;;;;;1.07;100.00;103024.28;5076279;28;20495;-30
2022/02/28 06:18:12;;;;;;;8.40;4.43;;;;;;;1.07;100.00;103033.38;5077257;28;20045;-23
2022/02/28 06:20:41;;;;;;;8.65;4.93;;;;;;;1.08;100.00;103037.00;5072453;28;20064;-25
2022/02/28 06:23:14;;;;;;;11.82;5.20;;;;;;;1.06;100.00;103026.19;5079395;28;20064;-26
2022/02/28 06:25:42;;;;;;;8.25;4.28;;;;;;;1.03;100.00;103027.41;5073655;28;20518;-29
2022/02/28 06:28:10;;;;;;;8.07;4.38;;;;;;;1.01;100.00;103034.97;5079803;28;20029;-28
2022/02/28 06:30:40;;;;;;;10.68;4.57;;;;;;;1.01;100.00;103028.63;5072935;28;20045;-27
2022/02/28 06:33:08;;;;;;;8.02;4.60;;;;;;;1.00;100.00;103035.16;5081944;28;20048;-24
2022/02/28 06:35:37;;;;;;;9.55;5.53;;;;;;;0.98;100.00;103040.84;5072984;28;20109;-25
2022/02/28 06:38:04;;;;;;;8.27;4.25;;;;;;;1.00;100.00;103037.91;5081703;28;20056;-27
2022/02/28 06:40:34;;;;;;;9.65;5.03;;;;;;;0.97;100.00;103039.16;5073643;28;20502;-26
2022/02/28 06:43:02;;;;;;;11.82;5.47;;;;;;;0.98;100.00;103034.50;5080322;28;20054;-29
2022/02/28 06:45:29;;;;;;;8.40;5.03;;;;;;;0.99;100.00;103036.22;5073949;28;20052;-25
2022/02/28 06:47:57;;;;;;;9.00;4.78;;;;;;;0.99;100.00;103039.81;5079886;28;20075;-29
2022/02/28 06:50:28;;;;;;;10.32;4.63;;;;;;;0.96;100.00;103042.94;5074040;28;20134;-26
2022/02/28 06:52:55;;;;;;;8.05;4.30;;;;;;;0.94;100.00;103047.75;5078581;28;20055;-27
2022/02/28 06:55:23;;;;;;;9.23;4.47;;;;;;;0.94;100.00;103053.25;5076672;28;20044;-27
2022/02/28 06:57:52;;;;;;;8.63;4.78;;;;;;;0.96;100.00;103062.16;5082199;28;20066;-26
2022/02/28 07:00:20;;;;;;;9.00;4.88;;;;;;;0.98;100.00;103060.09;5077330;28;20054;-33
2022/02/28 07:03:02;;;;;;;7.95;4.22;;;;;;;0.98;100.00;103071.09;5081119;28;20048;-35
2022/02/28 07:05:31;;;;;;;8.93;4.28;;;;;;;1.00;100.00;103066.25;5086453;28;20093;-27
2022/02/28 07:07:58;;;;;;;8.40;4.90;;;;;;;1.03;100.00;103074.13;5084433;28;20049;-27
2022/02/28 07:10:26;;;;;;;7.85;4.95;;;;;;;1.04;100.00;103067.59;5085121;28;20052;-30
2022/02/28 07:12:55;;;;;;;9.52;4.45;;;;;;;1.07;100.00;103077.38;5083422;28;20052;-24
2022/02/28 07:15:25;;;;;;;7.75;4.70;;;;;;;1.10;100.00;103079.75;5086722;28;20054;-26
2022/02/28 07:17:54;;;;;;;9.88;5.20;;;;;;;1.15;100.00;103079.22;5088163;28;20414;-26
2022/02/28 07:20:22;;;;;;;8.75;4.57;;;;;;;1.21;100.00;103076.59;5085067;28;20079;-28
2022/02/28 07:22:50;;;;;;;8.52;4.78;;;;;;;1.33;100.00;103083.38;5086289;28;20517;-27
2022/02/28 07:25:18;;;;;;;11.27;5.05;;;;;;;1.54;100.00;103081.84;5082414;28;20081;-26
2022/02/28 07:27:45;;;;;;;11.40;5.40;;;;;;;1.80;100.00;103078.69;5088266;28;20477;-27
2022/02/28 07:30:16;;;;;;;8.77;5.18;;;;;;;2.10;100.00;103072.16;5080335;28;20048;-29
2022/02/28 07:32:44;;;;;;;9.13;5.47;;;;;;;2.39;100.00;103082.34;5088383;28;20109;-25
2022/02/28 07:35:12;;;;;;;8.25;4.72;;;;;;;2.62;99.96;103080.31;5080099;28;20093;-30
2022/02/28 07:37:39;;;;;;;9.43;4.97;;;;;;;2.82;98.12;103091.59;5087396;28;20450;-25
2022/02/28 07:40:09;;;;;;;8.35;4.90;;;;;;;3.00;96.96;103081.00;5080406;28;20115;-26
2022/02/28 07:42:37;;;;;;;10.02;5.10;;;;;;;3.17;94.57;103083.53;5086758;28;20126;-30
2022/02/28 07:45:07;;;;;;;8.15;4.78;;;;;;;3.38;94.62;103072.50;5078758;28;20410;-27
2022/02/28 07:47:36;;;;;;;8.23;4.38;;;;;;;3.50;92.87;103076.44;5086975;28;20566;-29
2022/02/28 07:50:05;;;;;;;10.20;4.70;;;;;;;3.63;91.47;103086.72;5080125;28;20052;-29
2022/02/28 07:52:33;;;;;;;8.70;4.95;;;;;;;3.75;90.77;103086.00;5085627;28;20041;-32
2022/02/28 07:55:10;;;;;;;10.24;5.03;;;;;;;3.89;90.02;103080.59;5020231;28;10001404;-28
2022/02/28 07:57:38;;;;;;;7.80;4.10;;;;;;;3.98;87.68;103071.97;4550385;28;10000787;-25
2022/02/28 08:00:08;;;;;;;8.10;4.85;;;;;;;4.07;86.82;103075.41;5081409;28;20045;-29
2022/02/28 08:02:40;;;;;;;9.45;5.40;;;;;;;4.21;86.77;103073.56;5084980;28;20219;-28
2022/02/28 08:05:09;;;;;;;9.07;5.20;;;;;;;4.29;85.64;103078.97;5083107;28;20068;-26
2022/02/28 08:07:42;;;;;;;7.32;4.47;;;;;;;4.37;84.27;103081.56;5084244;28;20068;-25
2022/02/28 08:10:10;;;;;;;8.43;4.78;;;;;;;4.58;84.11;103095.31;5083414;28;20483;-28
2022/02/28 08:12:38;;;;;;;7.15;4.75;;;;;;;4.71;82.63;103081.53;5078271;28;20163;-27
2022/02/28 08:15:09;;;;;;;8.73;4.78;;;;;;;4.92;81.36;103088.00;5081539;28;20117;-29
2022/02/28 08:17:40;;;;;;;8.60;4.90;;;;;;;5.15;82.39;103075.53;5076350;28;20102;-27
2022/02/28 08:20:10;;;;;;;8.27;4.97;;;;;;;5.37;79.01;103070.66;5082457;28;20052;-25
2022/02/28 08:22:38;;;;;;;8.82;5.18;;;;;;;5.52;77.94;103063.00;5084266;28;20512;-26
2022/02/28 08:25:07;;;;;;;8.02;5.25;;;;;;;5.68;75.81;103075.59;5079041;28;20407;-26
2022/02/28 08:27:34;;;;;;;9.48;5.45;;;;;;;5.77;73.63;103068.78;5082773;28;20048;-26
2022/02/28 08:30:03;;;;;;;7.75;4.78;;;;;;;6.04;75.34;103066.00;5084796;28;20048;-27
2022/02/28 08:32:31;;;;;;;8.73;4.95;;;;;;;6.21;74.34;103050.63;5081197;28;20036;-29
2022/02/28 08:35:00;;;;;;;7.88;4.65;;;;;;;6.35;70.98;103052.31;5086596;28;20047;-25
2022/02/28 08:37:27;;;;;;;9.75;5.43;;;;;;;6.33;70.70;103034.19;5078567;28;20058;-25
2022/02/28 08:39:55;;;;;;;7.53;4.63;;;;;;;6.39;71.15;103036.09;5085811;28;20055;-33
2022/02/28 08:42:23;;;;;;;9.02;5.07;;;;;;;6.57;69.81;103039.88;5077411;28;20062;-27
2022/02/28 08:44:51;;;;;;;8.48;4.93;;;;;;;6.61;69.38;103043.03;5085871;28;20521;-29
2022/02/28 08:47:19;;;;;;;8.48;4.82;;;;;;;6.75;69.20;103035.53;5077723;28;20051;-27
2022/02/28 08:49:47;;;;;;;7.35;4.75;;;;;;;6.89;67.63;103040.78;5084896;28;20059;-26
2022/02/28 08:52:16;;;;;;;7.65;4.95;;;;;;;7.04;65.61;103032.16;5077730;28;20403;-33
2022/02/28 08:54:44;;;;;;;9.50;5.50;;;;;;;7.03;65.91;103036.00;5084884;28;20059;-26
2022/02/28 08:57:15;;;;;;;8.02;4.90;;;;;;;7.18;63.67;103039.34;5079374;28;20401;-31
2022/02/28 08:59:43;;;;;;;7.95;4.78;;;;;;;7.09;63.34;103037.03;5084719;28;20048;-29
2022/02/28 09:02:11;;;;;;;9.43;4.95;;;;;;;7.14;62.46;103026.97;5079908;28;20056;-30
2022/02/28 09:04:39;;;;;;;7.97;5.15;;;;;;;7.26;60.62;103041.00;5082717;28;20049;-30
2022/02/28 09:07:07;;;;;;;7.82;5.32;;;;;;;7.50;60.27;103029.06;5079563;28;20498;-29
2022/02/28 09:09:36;;;;;;;10.25;5.47;;;;;;;7.28;59.93;103027.72;5075884;28;20139;-26
2022/02/28 09:12:05;;;;;;;8.85;5.22;;;;;;;7.29;60.52;103023.03;5078827;28;20147;-28
2022/02/28 09:14:33;;;;;;;6.88;4.35;;;;;;;7.32;60.02;103023.44;5076249;28;20459;-25
2022/02/28 09:17:00;;;;;;;8.43;4.95;;;;;;;7.58;60.48;103030.72;5080470;28;20052;-28
2022/02/28 09:19:28;;;;;;;9.70;5.30;;;;;;;7.62;57.60;103026.41;5080532;28;20063;-27
2022/02/28 09:21:57;;;;;;;7.80;5.20;;;;;;;7.86;59.17;103025.53;5082841;28;20059;-26
2022/02/28 09:24:25;;;;;;;8.18;5.38;;;;;;;7.85;57.31;103026.63;5079934;28;20077;-28
2022/02/28 09:26:54;;;;;;;8.13;5.07;;;;;;;7.80;56.49;103031.16;5083756;28;20489;-28
2022/02/28 09:29:21;;;;;;;9.93;5.63;;;;;;;7.76;57.59;103027.16;5077057;28;20051;-27
2022/02/28 09:31:49;;;;;;;10.27;5.40;;;;;;;7.73;57.42;103020.13;5082923;28;20044;-25
2022/02/28 09:34:17;;;;;;;7.35;4.78;;;;;;;7.76;56.59;103033.56;5076346;28;20047;-27
2022/02/28 09:36:45;;;;;;;8.60;5.50;;;;;;;7.66;57.07;103021.25;5080083;28;20059;-26
2022/02/28 09:39:13;;;;;;;10.48;5.78;;;;;;;7.62;57.39;103018.06;4191859;28;10000896;-30
2022/02/28 09:42:03;;;;;;;7.57;5.28;;;;;;;7.77;56.85;103031.63;5079178;28;20443;-26
2022/02/28 09:44:49;;;;;;;9.50;5.45;;;;;;;7.92;55.98;103013.53;5077129;28;20059;-28
2022/02/28 09:47:52;;;;;;;10.63;5.85;;;;;;;7.85;56.87;103014.66;5081359;28;20174;-27
2022/02/28 09:50:39;;;;;;;8.38;5.15;;;;;;;7.69;56.59;103010.53;5081778;28;20093;-28
2022/02/28 09:53:51;;;;;;;9.03;5.30;;;;;;;7.73;54.82;103014.56;5073136;28;20068;-25
2022/02/28 09:56:30;;;;;;;7.90;4.80;;;;;;;8.06;57.16;103007.81;5081384;28;20082;-26
2022/02/28 09:59:19;;;;;;;8.27;4.97;;;;;;;8.24;55.08;103010.59;4203483;28;10000556;-25
2022/02/28 10:02:04;;;;;;;7.45;4.95;;;;;;;8.39;55.14;103013.91;5088557;28;20148;-27
2022/02/28 10:04:32;;;;;;;8.73;5.90;;;;;;;8.63;54.98;103017.66;5070704;28;20506;-28
2022/02/28 10:07:00;;;;;;;8.90;5.53;;;;;;;8.70;53.92;103025.94;5073612;28;20044;-27
2022/02/28 10:09:29;;;;;;;8.35;5.43;;;;;;;8.75;52.91;103032.50;5079006;28;20044;-27
2022/02/28 10:11:56;;;;;;;7.25;5.25;;;;;;;8.87;51.16;103050.09;5075845;28;20044;-28
2022/02/28 10:14:26;;;;;;;8.60;5.00;;;;;;;9.00;52.42;103057.44;5078383;28;20083;-30
2022/02/28 10:16:58;;;;;;;9.05;5.40;;;;;;;9.15;52.24;103059.81;5075910;28;20136;-30
2022/02/28 10:19:29;;;;;;;8.05;5.10;;;;;;;9.44;51.39;103058.94;5076650;28;20058;-25
2022/02/28 10:21:58;;;;;;;7.63;4.80;;;;;;;9.86;51.60;103067.25;5081367;28;20422;-28
2022/02/28 10:24:31;;;;;;;7.75;4.90;;;;;;;10.18;50.69;103063.06;5080156;28;20487;-30
2022/02/28 10:27:09;;;;;;;9.73;5.43;;;;;;;10.18;49.25;103065.84;5081455;28;20049;-27
2022/02/28 10:29:57;;;;;;;9.95;4.90;;;;;;;10.45;49.79;103055.03;5077348;28;20059;-27
2022/02/28 10:32:49;;;;;;;9.10;5.10;;;;;;;10.45;48.82;103049.47;5074372;28;20482;-27
2022/02/28 10:38:30;;;;;;;;;;;;;;;10.72;44.92;103032.19;5089704;28;20048;-29
2022/02/28 10:40:59;;;;;;;6.50;4.47;;;;;;;10.86;48.71;103034.44;5080920;28;20321;-27
2022/02/28 10:43:29;;;;;;;7.07;4.32;;;;;;;10.89;46.21;103045.13;5073949;28;20047;-28
2022/02/28 10:46:14;;;;;;;7.28;5.05;;;;;;;10.82;43.77;103071.47;5080727;28;20048;-25
2022/02/28 10:48:41;;;;;;;9.50;5.68;;;;;;;10.41;46.48;103048.25;5072503;28;20063;-30
2022/02/28 10:51:15;;;;;;;8.43;4.90;;;;;;;10.29;46.80;103055.78;5069157;28;20147;-30
2022/02/28 10:53:42;;;;;;;7.40;5.35;;;;;;;10.12;46.65;103066.81;5073712;28;20455;-26
2022/02/28 10:56:10;;;;;;;7.70;5.43;;;;;;;10.05;47.11;103065.22;5078341;28;20052;-30
2022/02/28 10:58:38;;;;;;;7.60;5.43;;;;;;;9.96;47.48;103050.81;5082662;28;20052;-27
2022/02/28 11:01:07;;;;;;;8.18;5.32;;;;;;;9.89;47.53;103041.69;5078328;28;20076;-28
2022/02/28 11:03:46;;;;;;;8.48;5.35;;;;;;;10.07;47.07;103030.41;5081119;28;20515;-29
2022/02/28 11:06:20;;;;;;;7.07;4.82;;;;;;;10.33;47.81;103029.94;5077896;28;20166;-29
2022/02/28 11:08:48;;;;;;;8.55;4.82;;;;;;;10.33;45.84;103024.38;5083730;28;20049;-28
2022/02/28 11:11:16;;;;;;;9.27;5.35;;;;;;;10.25;46.60;103016.34;5076180;28;20059;-32
2022/02/28 11:13:46;;;;;;;7.28;4.85;;;;;;;10.31;47.41;103020.97;5074567;28;20044;-30
2022/02/28 11:16:15;;;;;;;9.90;5.07;;;;;;;10.41;46.14;103028.72;5076673;28;20048;-29
2022/02/28 11:18:44;;;;;;;7.70;4.95;;;;;;;10.52;46.38;103019.47;5073995;28;20052;-33
2022/02/28 11:21:12;;;;;;;7.68;5.15;;;;;;;10.68;46.87;103015.91;5077570;28;20044;-30
2022/02/28 11:23:41;;;;;;;7.07;4.55;;;;;;;10.88;46.68;103014.63;5074736;28;20056;-25
2022/02/28 11:26:12;;;;;;;7.22;4.88;;;;;;;11.01;46.08;103017.13;5076174;28;20083;-29
2022/02/28 11:28:39;;;;;;;7.15;4.90;;;;;;;10.94;44.16;103019.22;5076187;28;20067;-26
2022/02/28 11:31:11;;;;;;;8.10;4.80;;;;;;;10.87;45.86;103007.34;5074548;28;20273;-25
2022/02/28 11:33:51;;;;;;;6.70;4.95;;;;;;;11.01;45.29;103003.16;5078177;28;20041;-27
2022/02/28 11:36:19;;;;;;;7.85;4.93;;;;;;;11.24;46.09;102991.84;5072370;28;20167;-27
2022/02/28 11:38:47;;;;;;;6.80;4.60;;;;;;;11.08;46.33;102992.69;5078487;28;20040;-33
2022/02/28 11:41:19;;;;;;;9.35;5.80;;;;;;;10.84;45.20;102986.34;5074350;28;20049;-26
2022/02/28 11:43:51;;;;;;;8.07;4.93;;;;;;;10.89;46.29;102980.03;5083599;28;20048;-26
2022/02/28 11:46:23;;;;;;;6.95;5.05;;;;;;;11.09;46.86;102977.63;5077560;28;20048;-29
2022/02/28 11:48:55;;;;;;;7.93;5.20;;;;;;;11.26;45.97;102980.44;5077319;28;20495;-34